Terminal Aerodrome Forecast
Issued by NWS Cleveland, OH

Home | Current Version | Previous Version | Text Only | Print | Product List | Glossary Off
Versions: 1 2 3 4 5 6 7 8 9 10 11 12 13 14

000
FTUS41 KCLE 161740
TAFYNG
TAF
KYNG 161740Z 1618/1718 25006KT P6SM VCSH OVC025
      TEMPO 1618/1621 5SM -SHSN OVC012
     FM162100 26007KT P6SM SCT025=

USA.gov is the U.S. government's official web portal to all federal, state and local government web resources and services.